Time;durP1;ratioP1;P1;durP2;ratioP2;P2;SDS_P1;SDS_P2;PMS_P1;PMS_P2;Temp;Humidity;BMP_temperature;BMP_pressure;BME280_temperature;BME280_humidity;BME280_pressure;Samples;Min_cycle;Max_cycle;Signal;HPM_P1;HPM_P2
2022/11/07 00:00:07;;;;;;;6.63;3.30;;;;;;;7.36;69.58;92863.59;2050605;70;20146;-76
2022/11/07 00:02:36;;;;;;;6.55;3.40;;;;;;;7.37;68.61;92856.66;2054401;69;20264;-76
2022/11/07 00:05:02;;;;;;;7.80;2.80;;;;;;;7.41;69.12;92853.44;2050964;70;20240;-76
2022/11/07 00:07:28;;;;;;;5.53;2.75;;;;;;;7.39;69.17;92868.78;2054368;70;20597;-77
2022/11/07 00:09:54;;;;;;;9.43;2.95;;;;;;;7.45;68.93;92851.69;2054112;70;20146;-77
2022/11/07 00:12:19;;;;;;;3.80;2.83;;;;;;;7.44;68.59;92857.88;2054193;70;20553;-78
2022/11/07 00:14:45;;;;;;;5.88;2.85;;;;;;;7.40;69.10;92861.09;2054107;70;20150;-78
2022/11/07 00:17:10;;;;;;;6.38;2.90;;;;;;;7.35;69.25;92862.13;2054321;69;20164;-78
2022/11/07 00:19:36;;;;;;;6.70;3.03;;;;;;;7.40;68.96;92852.69;2054258;70;20173;-78
2022/11/07 00:22:02;;;;;;;6.55;2.85;;;;;;;7.38;69.69;92872.16;2054062;70;20146;-76
2022/11/07 00:24:27;;;;;;;5.47;3.03;;;;;;;7.18;70.20;92870.63;2054222;70;20142;-76
2022/11/07 00:26:53;;;;;;;6.32;3.13;;;;;;;7.18;69.19;92868.56;2054205;70;20631;-75
2022/11/07 00:29:19;;;;;;;5.30;3.22;;;;;;;7.16;70.39;92871.22;2054126;70;20670;-77
2022/11/07 00:31:46;;;;;;;5.70;2.88;;;;;;;7.26;69.68;92879.66;2053967;70;20150;-78
2022/11/07 00:34:12;;;;;;;5.82;2.90;;;;;;;7.25;69.10;92876.09;2054049;69;20166;-77
2022/11/07 00:36:37;;;;;;;5.32;3.08;;;;;;;7.10;69.47;92881.94;2054349;70;20248;-77
2022/11/07 00:39:04;;;;;;;4.53;2.90;;;;;;;7.08;69.50;92873.41;2054467;69;20196;-77
2022/11/07 00:41:31;;;;;;;6.00;3.38;;;;;;;6.98;69.80;92875.44;2050835;70;20533;-78
2022/11/07 00:43:57;;;;;;;6.32;2.88;;;;;;;6.66;71.62;92882.06;2054092;70;20228;-77
2022/11/07 00:46:23;;;;;;;4.72;2.78;;;;;;;6.93;69.79;92879.97;2054265;70;20658;-78
2022/11/07 00:48:49;;;;;;;4.10;2.70;;;;;;;7.02;69.32;92878.53;2048222;70;20153;-78
2022/11/07 00:51:22;;;;;;;3.45;2.50;;;;;;;6.96;69.74;92897.66;2050975;70;20145;-78
2022/11/07 00:53:47;;;;;;;5.95;2.97;;;;;;;6.75;71.40;92898.91;2054403;70;20162;-78
2022/11/07 00:56:16;;;;;;;3.78;2.35;;;;;;;6.78;70.35;92899.78;2054212;70;20180;-78
2022/11/07 00:58:43;;;;;;;5.53;3.03;;;;;;;6.82;70.00;92895.25;2051080;70;20234;-77
2022/11/07 01:01:09;;;;;;;3.75;2.60;;;;;;;6.83;69.66;92905.13;2054137;70;20162;-78
2022/11/07 01:06:20;;;;;;;4.38;2.60;;;;;;;6.21;72.64;92921.22;2054115;70;20220;-77
2022/11/07 01:08:46;;;;;;;4.35;2.60;;;;;;;6.30;72.16;92917.75;2050996;70;20154;-78
2022/11/07 01:11:12;;;;;;;6.00;3.03;;;;;;;6.44;70.45;92918.16;2054271;70;20177;-76
2022/11/07 01:13:39;;;;;;;7.32;3.15;;;;;;;6.44;70.52;92912.56;2054123;69;20161;-77
2022/11/07 01:16:10;;;;;;;4.18;2.85;;;;;;;6.43;71.17;92915.94;2053910;70;20181;-76
2022/11/07 01:18:36;;;;;;;3.55;2.50;;;;;;;6.44;70.91;92920.94;2053819;70;20261;-77
2022/11/07 01:21:06;;;;;;;4.75;2.70;;;;;;;6.46;71.06;92911.97;2054134;70;20154;-77
2022/11/07 01:23:33;;;;;;;5.15;2.50;;;;;;;6.43;70.37;92916.69;2053650;70;20260;-77
2022/11/07 01:26:04;;;;;;;5.95;2.70;;;;;;;6.35;70.97;92918.81;2053673;70;20178;-77
2022/11/07 01:28:33;;;;;;;5.75;3.40;;;;;;;6.20;71.76;92916.97;2053635;70;20229;-77
2022/11/07 01:31:03;;;;;;;6.10;3.42;;;;;;;6.23;71.79;92917.84;2053558;70;20511;-77
2022/11/07 01:33:30;;;;;;;6.38;3.30;;;;;;;6.25;70.65;92909.63;2054019;70;20215;-77
2022/11/07 01:36:00;;;;;;;4.43;2.78;;;;;;;6.16;70.97;92905.44;2054206;70;20235;-77
2022/11/07 01:38:26;;;;;;;4.97;2.83;;;;;;;6.20;70.18;92911.38;2054132;70;20717;-77
2022/11/07 01:43:48;;;;;;;7.03;2.80;;;;;;;5.73;72.51;92915.97;2053897;70;20606;-77
2022/11/07 01:46:15;;;;;;;7.28;3.58;;;;;;;5.43;74.92;92917.00;2054258;70;20154;-77
2022/11/07 01:48:45;;;;;;;8.05;3.92;;;;;;;5.60;74.02;92917.03;2054125;70;20491;-78
2022/11/07 01:51:12;;;;;;;5.80;3.47;;;;;;;5.66;73.67;92921.63;2050934;70;20177;-77
2022/11/07 01:53:39;;;;;;;5.28;3.33;;;;;;;5.70;72.82;92919.91;2053994;70;20627;-78
2022/11/07 01:56:12;;;;;;;8.43;4.00;;;;;;;5.77;73.13;92923.91;2058648;70;20156;-77
2022/11/07 01:58:43;;;;;;;6.18;3.38;;;;;;;5.69;72.71;92918.44;2051621;70;20131;-78
2022/11/07 02:01:08;;;;;;;4.60;2.97;;;;;;;5.70;73.10;92930.34;2054332;70;20148;-78
2022/11/07 02:03:34;;;;;;;4.60;3.20;;;;;;;5.66;72.72;92916.78;2054640;70;20217;-78
2022/11/07 02:06:05;;;;;;;5.30;3.13;;;;;;;5.68;71.85;92938.53;2054884;70;20225;-78
2022/11/07 02:08:34;;;;;;;;;;;;;;;5.63;72.51;92936.72;2054965;69;20149;-77
2022/11/07 02:11:01;;;;;;;6.30;3.15;;;;;;;5.57;72.84;92940.50;2054575;69;20046;-77
2022/11/07 02:13:29;;;;;;;4.72;2.88;;;;;;;5.61;71.88;92937.31;2054604;70;20649;-77
2022/11/07 02:15:58;;;;;;;5.72;3.13;;;;;;;5.48;71.27;92935.56;2054145;69;20522;-78
2022/11/07 02:18:26;;;;;;;7.50;3.20;;;;;;;5.49;73.21;92939.09;2054322;70;20142;-77
2022/11/07 02:20:56;;;;;;;7.95;3.10;;;;;;;5.40;72.69;92942.53;2051602;70;20154;-78
2022/11/07 02:23:29;;;;;;;4.85;2.88;;;;;;;5.08;73.16;92930.13;2051109;70;20249;-78
2022/11/07 02:25:54;;;;;;;4.78;3.15;;;;;;;5.14;73.85;92927.13;2051197;70;20153;-79
2022/11/07 02:28:24;;;;;;;4.50;3.10;;;;;;;5.29;72.80;92932.56;2051128;70;20146;-79
2022/11/07 02:30:50;;;;;;;4.18;2.85;;;;;;;5.13;73.26;92936.78;2050963;70;20251;-79
2022/11/07 02:33:18;;;;;;;8.02;3.17;;;;;;;5.25;72.41;92932.97;2051520;70;20188;-78
2022/11/07 02:35:46;;;;;;;5.78;2.95;;;;;;;5.20;72.02;92922.78;2051260;70;20189;-78
2022/11/07 02:38:18;;;;;;;5.57;2.90;;;;;;;5.16;72.80;92928.03;2054496;70;20225;-78
2022/11/07 02:40:50;;;;;;;;;;;;;;;5.25;72.44;92924.59;2054524;70;20142;-77
2022/11/07 02:43:19;;;;;;;5.20;2.80;;;;;;;5.08;71.68;92932.91;2054556;70;20058;-78
2022/11/07 02:45:50;;;;;;;3.13;2.08;;;;;;;5.14;71.40;92925.06;2054259;70;20555;-76
2022/11/07 02:48:16;;;;;;;3.97;2.67;;;;;;;4.99;71.62;92919.59;2054194;70;20146;-78
2022/11/07 02:50:43;;;;;;;3.63;2.60;;;;;;;4.99;72.61;92925.16;2051276;70;20486;-78
2022/11/07 02:53:14;;;;;;;6.05;2.60;;;;;;;5.06;72.18;92935.53;2051268;70;20224;-77
2022/11/07 02:55:40;;;;;;;4.05;2.30;;;;;;;4.91;71.98;92924.50;2054593;70;20144;-78
2022/11/07 02:58:05;;;;;;;4.80;2.15;;;;;;;4.93;72.97;92921.88;2051459;70;20220;-78
2022/11/07 03:00:31;;;;;;;3.55;2.00;;;;;;;4.99;72.56;92922.38;2054416;70;20141;-78
2022/11/07 03:02:57;;;;;;;3.95;2.03;;;;;;;4.99;72.30;92922.38;2054795;70;20186;-78
2022/11/07 03:05:22;;;;;;;2.90;1.80;;;;;;;5.06;73.61;92927.91;2054433;70;20149;-77
2022/11/07 03:07:49;;;;;;;5.05;1.83;;;;;;;4.97;72.97;92936.16;2054662;69;20138;-76
2022/11/07 03:10:16;;;;;;;3.60;1.70;;;;;;;5.02;73.19;92938.72;2054667;70;20222;-76
2022/11/07 03:12:42;;;;;;;3.92;2.75;;;;;;;4.74;72.70;92933.53;2054478;70;20452;-77
2022/11/07 03:15:09;;;;;;;6.15;2.60;;;;;;;4.50;73.83;92940.56;2054278;69;20134;-76
2022/11/07 03:17:35;;;;;;;7.45;2.42;;;;;;;4.56;74.59;92949.44;2054626;70;20574;-76
2022/11/07 03:20:00;;;;;;;4.75;2.60;;;;;;;4.68;74.13;92949.75;2054616;70;20146;-76
2022/11/07 03:22:26;;;;;;;6.00;2.22;;;;;;;4.68;73.23;92949.75;2051279;70;20177;-76
2022/11/07 03:24:52;;;;;;;5.38;2.45;;;;;;;4.70;73.13;92947.88;2054591;70;20170;-76
2022/11/07 03:27:18;;;;;;;4.03;2.35;;;;;;;4.65;73.21;92954.41;2051392;70;20564;-76
2022/11/07 03:29:43;;;;;;;4.60;2.55;;;;;;;4.50;73.28;92944.09;2051121;70;20142;-76
2022/11/07 03:32:09;;;;;;;7.07;2.58;;;;;;;4.57;73.16;92948.13;2054515;70;20662;-76
2022/11/07 03:34:35;;;;;;;4.38;2.70;;;;;;;4.59;73.08;92951.84;2054766;70;20555;-76
2022/11/07 03:37:03;;;;;;;4.82;2.70;;;;;;;4.60;73.49;92960.94;2054636;70;20142;-76
2022/11/07 03:39:28;;;;;;;7.22;1.98;;;;;;;4.47;73.60;92961.94;2054605;70;20145;-76
2022/11/07 03:41:54;;;;;;;6.63;2.90;;;;;;;4.41;74.10;92980.94;2055153;70;20172;-76
2022/11/07 03:44:21;;;;;;;3.78;2.60;;;;;;;4.42;73.21;92976.09;2054775;70;20208;-77
2022/11/07 03:46:47;;;;;;;4.88;2.53;;;;;;;4.46;73.24;92985.53;2054557;70;20166;-77
2022/11/07 03:49:12;;;;;;;13.45;7.32;;;;;;;4.35;73.73;92972.00;2051239;70;20152;-77
2022/11/07 03:51:38;;;;;;;6.35;4.10;;;;;;;4.43;73.55;92972.72;2054259;70;20551;-76
2022/11/07 03:54:03;;;;;;;18.92;10.13;;;;;;;4.46;73.91;92968.81;2054538;69;20138;-76
2022/11/07 03:56:29;;;;;;;18.70;9.55;;;;;;;4.01;75.30;92976.03;2054524;70;20680;-77
2022/11/07 03:58:55;;;;;;;14.70;7.40;;;;;;;4.14;75.05;92966.72;2054453;70;20614;-76
2022/11/07 04:01:20;;;;;;;11.93;5.53;;;;;;;4.06;74.63;92972.31;2054575;69;20146;-76
2022/11/07 04:03:46;;;;;;;10.65;5.68;;;;;;;4.21;74.74;92971.50;2054583;70;20633;-76
2022/11/07 04:06:12;;;;;;;10.68;6.10;;;;;;;4.11;72.99;92973.41;2054420;70;20137;-76
2022/11/07 04:08:37;;;;;;;13.23;5.88;;;;;;;4.27;73.08;92982.47;2054468;69;20146;-76
2022/11/07 04:11:04;;;;;;;8.05;3.80;;;;;;;4.20;73.53;92972.09;2054512;70;20161;-77
2022/11/07 04:19:01;;;;;;;5.82;3.55;;;;;;;3.99;74.95;92989.06;2054769;70;20171;-77
2022/11/07 04:21:26;;;;;;;7.30;4.03;;;;;;;3.94;73.51;92996.31;2054671;70;20575;-77
2022/11/07 04:23:52;;;;;;;5.82;3.70;;;;;;;4.00;74.27;92993.34;2054788;70;20148;-77
2022/11/07 04:29:01;;;;;;;18.05;10.07;;;;;;;3.82;75.73;93001.53;2054612;70;20694;-77
2022/11/07 04:31:28;;;;;;;19.52;11.40;;;;;;;3.86;73.31;92995.59;2054504;70;20145;-77
2022/11/07 04:33:53;;;;;;;14.27;10.15;;;;;;;3.96;73.19;92996.50;2054515;70;20138;-77
2022/11/07 04:36:19;;;;;;;15.95;9.70;;;;;;;4.00;74.78;93001.69;2054454;70;20164;-77
2022/11/07 04:38:45;;;;;;;19.90;10.23;;;;;;;4.03;73.85;92992.97;2054451;70;20220;-77
2022/11/07 04:41:22;;;;;;;7.18;5.55;;;;;;;4.14;73.71;92991.81;2054400;70;20137;-77
2022/11/07 04:43:48;;;;;;;15.93;8.52;;;;;;;3.88;75.49;92995.03;2054381;70;20181;-76
2022/11/07 04:46:15;;;;;;;6.97;4.38;;;;;;;3.56;77.31;93002.69;2054514;70;20161;-76
2022/11/07 04:48:41;;;;;;;7.38;4.75;;;;;;;3.75;75.54;92993.19;2051090;70;20146;-76
2022/11/07 04:51:12;;;;;;;9.23;6.38;;;;;;;3.70;74.76;92988.56;2054463;70;20247;-76
2022/11/07 04:53:38;;;;;;;539.00;161.90;;;;;;;3.71;75.29;92988.00;2055130;70;20150;-76
2022/11/07 04:56:03;;;;;;;181.85;56.15;;;;;;;3.81;75.69;92975.00;2054453;70;20158;-77
2022/11/07 04:58:29;;;;;;;79.97;27.25;;;;;;;3.84;76.72;92975.91;2054304;70;20146;-76
2022/11/07 05:00:54;;;;;;;34.42;13.07;;;;;;;3.86;76.36;92969.78;2054355;70;20152;-76
2022/11/07 05:03:20;;;;;;;54.42;19.90;;;;;;;3.98;75.12;92982.00;2054309;70;20156;-77
2022/11/07 05:05:45;;;;;;;36.47;12.93;;;;;;;3.92;75.79;92978.69;2054383;70;20598;-77
2022/11/07 05:08:12;;;;;;;14.40;5.72;;;;;;;4.00;76.06;92985.72;2054402;70;20195;-77
2022/11/07 05:10:38;;;;;;;10.75;4.95;;;;;;;3.44;79.01;92993.25;2054416;70;20526;-77
2022/11/07 05:13:03;;;;;;;8.82;4.40;;;;;;;3.65;78.86;93006.19;2054374;70;20142;-77
2022/11/07 05:15:29;;;;;;;12.48;4.90;;;;;;;3.66;77.12;92990.97;2054125;70;20189;-77
2022/11/07 05:17:56;;;;;;;11.45;5.10;;;;;;;3.82;76.09;93015.47;2054432;70;20224;-77
2022/11/07 05:20:33;;;;;;;10.80;4.65;;;;;;;3.65;76.58;93008.97;2051884;70;20146;-76
2022/11/07 05:23:11;;;;;;;11.85;4.60;;;;;;;3.72;75.73;93017.34;2054348;70;20154;-76
2022/11/07 05:25:48;;;;;;;10.73;4.30;;;;;;;3.49;75.27;93027.75;2054412;70;20162;-75
2022/11/07 05:28:23;;;;;;;7.93;3.83;;;;;;;3.69;75.13;93021.22;2054297;70;20615;-75
2022/11/07 05:30:48;;;;;;;9.27;4.15;;;;;;;3.60;74.95;93019.00;2054207;70;20146;-75
2022/11/07 05:33:15;;;;;;;14.05;6.05;;;;;;;3.28;77.90;93014.75;2054280;70;20138;-75
2022/11/07 05:35:42;;;;;;;15.90;6.13;;;;;;;3.67;76.47;93015.50;2054367;70;20209;-76
2022/11/07 05:38:08;;;;;;;11.30;5.05;;;;;;;3.70;76.59;93031.06;2054223;70;20571;-76
2022/11/07 05:40:35;;;;;;;10.93;5.38;;;;;;;3.73;76.14;93024.38;2054279;70;20272;-79
2022/11/07 05:43:03;;;;;;;12.40;4.93;;;;;;;3.70;74.49;93035.88;2050966;70;20142;-78
2022/11/07 05:45:30;;;;;;;10.23;5.30;;;;;;;3.73;75.06;93032.00;2050876;70;20157;-76
2022/11/07 05:48:03;;;;;;;16.65;7.05;;;;;;;3.38;76.12;93023.28;2054369;70;20237;-77
2022/11/07 05:50:29;;;;;;;19.90;9.90;;;;;;;3.54;75.66;93035.16;2051012;70;20145;-77
2022/11/07 05:52:55;;;;;;;22.00;11.23;;;;;;;3.68;75.77;93028.09;2054237;70;20507;-77
2022/11/07 05:55:22;;;;;;;17.02;9.27;;;;;;;3.64;74.84;93038.88;2054202;70;20176;-77
2022/11/07 05:57:48;;;;;;;18.13;8.55;;;;;;;3.67;74.98;93042.59;2054220;70;20154;-77
2022/11/07 06:00:16;;;;;;;17.45;9.10;;;;;;;3.78;75.77;93037.38;2054114;70;20153;-77
2022/11/07 06:02:42;;;;;;;16.60;9.15;;;;;;;3.75;75.72;93044.03;2050932;70;20138;-77
2022/11/07 06:05:08;;;;;;;12.80;6.30;;;;;;;3.78;74.98;93037.38;2054247;70;20173;-77
2022/11/07 06:07:34;;;;;;;16.20;8.27;;;;;;;3.71;76.58;93040.91;2054289;70;20173;-76
2022/11/07 06:10:00;;;;;;;12.23;6.65;;;;;;;3.70;76.10;93035.88;2054192;70;20545;-76
2022/11/07 06:12:25;;;;;;;13.13;6.63;;;;;;;3.69;76.36;93049.06;2054183;70;20150;-78
2022/11/07 06:14:51;;;;;;;14.35;6.13;;;;;;;3.73;75.71;93048.72;2054208;70;20149;-78
2022/11/07 06:17:16;;;;;;;9.27;4.82;;;;;;;3.76;76.31;93048.34;2054278;70;20173;-77
2022/11/07 06:19:42;;;;;;;9.10;4.03;;;;;;;3.62;76.41;93051.84;2054379;70;20598;-77
2022/11/07 06:22:08;;;;;;;17.58;9.68;;;;;;;3.23;79.19;93051.09;2054454;70;20154;-76
2022/11/07 06:24:33;;;;;;;21.33;10.02;;;;;;;3.44;78.39;93059.31;2054458;70;20134;-76
2022/11/07 06:26:59;;;;;;;21.63;10.32;;;;;;;3.62;76.41;93049.84;2056990;70;20229;-75
2022/11/07 06:29:26;;;;;;;20.48;11.30;;;;;;;3.56;76.30;93052.03;2060957;70;20253;-76
2022/11/07 06:31:53;;;;;;;20.55;10.52;;;;;;;3.69;75.12;93063.00;2061436;70;20233;-76
2022/11/07 06:34:18;;;;;;;19.35;10.77;;;;;;;3.63;75.09;93067.28;2055412;70;20181;-76
2022/11/07 06:36:44;;;;;;;19.25;10.13;;;;;;;3.38;76.05;93067.81;2054648;70;20266;-76
2022/11/07 06:39:10;;;;;;;15.23;9.07;;;;;;;3.65;76.10;93064.66;2054340;70;20194;-77
2022/11/07 06:41:37;;;;;;;16.90;8.43;;;;;;;3.73;76.21;93070.97;2054847;70;20138;-76
2022/11/07 06:44:02;;;;;;;20.10;9.52;;;;;;;3.76;75.35;93061.53;2054012;70;20583;-77
2022/11/07 06:46:30;;;;;;;10.98;6.18;;;;;;;3.83;76.03;93063.53;2050838;70;20237;-77
2022/11/07 06:48:56;;;;;;;13.63;7.47;;;;;;;3.78;75.31;93068.00;2054604;70;20205;-77
2022/11/07 06:51:21;;;;;;;25.05;11.40;;;;;;;3.69;75.71;93068.56;2051278;70;20154;-78
2022/11/07 06:53:49;;;;;;;22.92;10.60;;;;;;;3.83;76.23;93077.47;2054861;70;20486;-76
2022/11/07 06:56:15;;;;;;;23.08;10.75;;;;;;;3.78;76.09;93083.97;2058120;70;20230;-80
2022/11/07 06:58:40;;;;;;;23.35;11.13;;;;;;;3.81;75.81;93091.22;2054725;70;20153;-78
2022/11/07 07:01:08;;;;;;;19.23;9.75;;;;;;;3.78;75.35;93081.19;2051257;70;20252;-78
2022/11/07 07:03:34;;;;;;;16.83;8.52;;;;;;;3.93;76.02;93081.16;2054796;70;20245;-78
2022/11/07 07:06:02;;;;;;;18.83;9.10;;;;;;;3.85;75.73;93085.25;2054773;69;20598;-77
2022/11/07 07:08:27;;;;;;;29.30;13.48;;;;;;;3.80;77.12;93084.91;2054776;70;20229;-77
2022/11/07 07:10:53;;;;;;;25.77;11.82;;;;;;;3.92;75.92;93090.09;2051490;70;20141;-77
2022/11/07 07:13:19;;;;;;;26.20;15.30;;;;;;;3.51;78.02;93101.03;2054717;70;20486;-78
2022/11/07 07:15:54;;;;;;;36.65;17.27;;;;;;;3.59;77.30;93103.84;2054462;70;20142;-78
2022/11/07 07:18:21;;;;;;;30.05;15.52;;;;;;;3.76;76.59;93095.69;2054738;70;20207;-78
2022/11/07 07:20:50;;;;;;;26.45;15.20;;;;;;;4.01;75.66;93109.78;2048587;70;20511;-77
2022/11/07 07:23:18;;;;;;;35.17;16.45;;;;;;;3.96;75.72;93112.75;2054582;70;20145;-78
2022/11/07 07:25:44;;;;;;;28.20;15.90;;;;;;;4.06;75.30;93114.41;2054599;69;20174;-78
2022/11/07 07:28:10;;;;;;;28.58;15.88;;;;;;;4.08;75.78;93109.03;2054735;70;20559;-78
2022/11/07 07:30:35;;;;;;;26.25;14.68;;;;;;;4.19;75.50;93104.38;2054728;70;20148;-78
2022/11/07 07:33:01;;;;;;;33.42;18.40;;;;;;;4.08;75.86;93111.09;2054866;70;20133;-80
2022/11/07 07:35:27;;;;;;;36.22;19.70;;;;;;;4.25;75.75;93118.84;2051399;70;20710;-77
2022/11/07 07:41:43;;;;;;;41.90;20.20;;;;;;;4.67;75.10;93119.09;2054437;70;20578;-77
2022/11/07 07:44:17;;;;;;;36.33;20.48;;;;;;;4.72;75.19;93106.25;2051066;70;20177;-78
2022/11/07 07:46:42;;;;;;;31.48;16.55;;;;;;;4.91;74.80;93105.84;2054602;70;20147;-76
2022/11/07 07:49:08;;;;;;;21.17;11.43;;;;;;;5.07;74.39;93116.34;2054614;70;20157;-77
2022/11/07 07:51:34;;;;;;;32.67;18.73;;;;;;;4.86;75.59;93115.91;2054532;70;20161;-77
2022/11/07 07:54:00;;;;;;;35.67;20.00;;;;;;;4.95;75.14;93111.75;2054638;70;20471;-77
2022/11/07 07:56:26;;;;;;;36.83;20.88;;;;;;;4.58;75.99;93122.47;2054609;70;20138;-77
2022/11/07 07:58:52;;;;;;;32.42;19.45;;;;;;;4.69;75.66;93113.72;2054345;70;20648;-77
2022/11/07 08:01:17;;;;;;;37.95;20.35;;;;;;;5.01;74.95;93115.09;2054336;70;20189;-78
2022/11/07 08:03:43;;;;;;;36.53;20.40;;;;;;;5.08;74.52;93117.09;2054458;70;20161;-77
2022/11/07 08:06:09;;;;;;;32.47;18.65;;;;;;;5.10;74.10;93114.50;2054655;70;20258;-78
2022/11/07 08:08:35;;;;;;;35.70;19.80;;;;;;;5.34;74.43;93111.00;2054447;70;20142;-79
2022/11/07 08:11:02;;;;;;;34.60;17.38;;;;;;;5.77;74.99;93113.91;2054516;70;20176;-79
2022/11/07 08:13:29;;;;;;;32.47;18.23;;;;;;;5.75;75.89;93108.88;2054331;70;20154;-79
2022/11/07 08:15:55;;;;;;;25.30;14.93;;;;;;;6.14;75.82;93112.16;2054372;70;20154;-79
2022/11/07 08:18:21;;;;;;;26.75;17.60;;;;;;;6.53;75.36;93118.13;2054504;70;20503;-78
2022/11/07 08:20:51;;;;;;;24.65;14.45;;;;;;;6.76;73.95;93112.28;2054509;70;20241;-79
2022/11/07 08:23:19;;;;;;;24.30;14.15;;;;;;;7.18;72.42;93111.44;2054554;70;20187;-79
2022/11/07 08:25:54;;;;;;;17.15;11.70;;;;;;;7.70;71.80;93111.28;2054431;70;20142;-78
2022/11/07 08:28:24;;;;;;;19.85;11.38;;;;;;;7.90;70.00;93110.78;2054383;70;20161;-78
2022/11/07 08:31:09;;;;;;;7.30;4.53;;;;;;;8.38;69.22;93117.91;2055564;70;20224;-77
2022/11/07 08:33:35;;;;;;;7.95;5.10;;;;;;;8.57;68.63;93109.53;2055932;70;20166;-77
2022/11/07 08:36:02;;;;;;;16.25;9.73;;;;;;;8.40;66.51;93110.38;2051129;70;20217;-77
2022/11/07 08:38:29;;;;;;;21.60;10.45;;;;;;;8.36;66.53;93115.69;2054542;70;20250;-78
2022/11/07 08:40:55;;;;;;;16.25;10.18;;;;;;;8.32;67.07;93106.19;2054440;69;20351;-78
2022/11/07 08:43:21;;;;;;;13.95;7.93;;;;;;;8.63;66.03;93100.84;2054439;70;20157;-77
2022/11/07 08:45:48;;;;;;;14.65;7.30;;;;;;;8.80;64.49;93100.72;2054493;70;20200;-77
2022/11/07 08:48:15;;;;;;;9.40;6.32;;;;;;;8.95;64.19;93110.16;2054382;70;20164;-78
2022/11/07 08:50:40;;;;;;;8.85;5.85;;;;;;;9.14;63.95;93105.28;2054361;70;20152;-77
2022/11/07 08:53:07;;;;;;;7.47;4.90;;;;;;;9.43;64.02;93105.22;2054337;70;20158;-77
2022/11/07 08:55:33;;;;;;;18.42;10.45;;;;;;;9.99;63.33;93098.59;2051046;70;20273;-80
2022/11/07 08:58:04;;;;;;;17.23;8.80;;;;;;;10.39;61.96;93109.06;2054281;70;20525;-79
2022/11/07 09:00:32;;;;;;;13.43;7.55;;;;;;;10.79;61.80;93110.31;2054337;70;20570;-79
2022/11/07 09:03:05;;;;;;;5.40;2.78;;;;;;;10.40;60.97;93099.31;2054449;70;20161;-79
2022/11/07 09:05:31;;;;;;;3.58;2.38;;;;;;;11.01;59.46;93107.50;2054434;70;20157;-79
2022/11/07 09:07:56;;;;;;;2.58;1.75;;;;;;;11.43;58.79;93106.72;2054396;70;20126;-79
2022/11/07 09:10:22;;;;;;;6.05;2.05;;;;;;;11.64;56.21;93101.03;2051090;70;20199;-78
2022/11/07 09:12:49;;;;;;;2.83;1.70;;;;;;;12.11;56.12;93097.56;2054290;70;20660;-78
2022/11/07 09:15:15;;;;;;;2.92;1.90;;;;;;;12.01;54.06;93086.41;2054264;70;20236;-78
2022/11/07 09:17:42;;;;;;;2.90;1.73;;;;;;;12.08;53.50;93095.97;2054398;70;20157;-78
2022/11/07 09:20:08;;;;;;;5.25;1.88;;;;;;;12.38;52.75;93092.19;2054453;70;20169;-78
2022/11/07 09:22:34;;;;;;;4.47;2.90;;;;;;;12.76;52.10;93095.81;2054757;70;20157;-79
2022/11/07 09:25:00;;;;;;;3.00;2.20;;;;;;;12.59;52.81;93082.81;2055124;70;20138;-80
2022/11/07 09:27:26;;;;;;;5.28;3.00;;;;;;;13.10;51.45;93088.63;2054908;70;20526;-78
2022/11/07 09:29:51;;;;;;;3.55;2.10;;;;;;;13.45;50.93;93084.94;2057961;70;20150;-77
2022/11/07 09:32:17;;;;;;;3.65;2.05;;;;;;;13.85;49.55;93080.81;2061092;70;20150;-78
2022/11/07 09:34:45;;;;;;;2.38;2.00;;;;;;;13.86;49.00;93079.44;2061138;70;20229;-77
2022/11/07 09:37:11;;;;;;;2.22;1.80;;;;;;;13.98;47.64;93077.28;2056890;70;20178;-81
2022/11/07 09:39:36;;;;;;;2.38;1.73;;;;;;;14.52;47.84;93080.09;2055678;70;20259;-80
2022/11/07 09:42:10;;;;;;;2.13;1.70;;;;;;;14.46;47.68;93083.31;2054863;70;20316;-80
2022/11/07 09:45:10;;;;;;;2.60;1.90;;;;;;;14.48;47.04;93078.53;2054479;70;20268;-81
2022/11/07 09:47:44;;;;;;;3.95;1.85;;;;;;;14.66;46.21;93084.44;2051795;70;20144;-79
2022/11/07 09:50:20;;;;;;;3.08;2.17;;;;;;;14.96;45.93;93076.72;2054623;70;20237;-80
2022/11/07 09:53:06;;;;;;;2.33;1.38;;;;;;;14.97;44.05;93072.53;2054451;70;20234;-80
2022/11/07 09:55:50;;;;;;;1.90;1.30;;;;;;;15.46;43.85;93065.69;2051831;70;20185;-80
2022/11/07 09:58:30;;;;;;;3.05;1.50;;;;;;;15.63;44.87;93067.22;2054291;70;20594;-80
2022/11/07 10:01:02;;;;;;;2.47;1.70;;;;;;;16.38;43.24;93061.47;2054273;70;20615;-80
2022/11/07 10:03:28;;;;;;;1.77;1.38;;;;;;;14.71;44.41;93057.78;2054312;70;20269;-80
2022/11/07 10:06:00;;;;;;;3.10;1.52;;;;;;;15.02;44.64;93055.72;2054511;70;20150;-80
2022/11/07 10:08:38;;;;;;;2.28;1.48;;;;;;;14.37;44.60;93053.84;2057572;70;20161;-80
2022/11/07 10:11:22;;;;;;;2.00;1.30;;;;;;;13.87;44.89;93051.88;2054473;70;20178;-80
2022/11/07 10:14:00;;;;;;;1.85;1.38;;;;;;;14.93;43.62;93046.06;2054243;70;20177;-80
2022/11/07 10:17:01;;;;;;;2.55;1.38;;;;;;;13.69;45.48;93043.13;2054252;69;20142;-80
2022/11/07 10:20:04;;;;;;;1.50;1.10;;;;;;;13.39;46.46;93039.38;2054427;70;20473;-80
2022/11/07 10:22:39;;;;;;;1.40;1.13;;;;;;;13.66;45.87;93044.41;2054204;70;20142;-80
2022/11/07 10:25:29;;;;;;;3.50;1.50;;;;;;;13.82;47.23;93036.78;2054837;69;20233;-80
2022/11/07 10:28:14;;;;;;;2.20;1.98;;;;;;;14.42;45.75;93041.34;2054905;70;20138;-80
2022/11/07 10:30:42;;;;;;;3.03;1.60;;;;;;;14.66;44.46;93035.50;2054953;70;20161;-80
2022/11/07 10:33:19;;;;;;;1.85;1.33;;;;;;;18.12;40.74;93049.56;2054976;70;20347;-78
2022/11/07 10:35:53;;;;;;;3.35;2.42;;;;;;;18.58;38.58;93042.00;2051521;70;20178;-79
2022/11/07 10:38:26;;;;;;;3.72;2.35;;;;;;;18.13;38.61;93037.50;2054706;70;20142;-79
2022/11/07 10:40:52;;;;;;;;;;;;;;;19.69;35.59;93018.00;2054823;70;20158;-79
2022/11/07 10:43:40;;;;;;;5.78;2.80;;;;;;;20.10;35.69;93019.28;2054723;70;20475;-79
2022/11/07 10:46:15;;;;;;;5.13;2.90;;;;;;;20.02;34.54;93016.91;2054752;70;20225;-79
2022/11/07 10:48:55;;;;;;;4.40;2.15;;;;;;;22.16;31.89;93013.38;2054696;70;20145;-79
2022/11/07 10:51:41;;;;;;;2.72;2.08;;;;;;;20.59;31.41;93012.91;2054625;70;20146;-77
2022/11/07 10:54:19;;;;;;;3.63;2.95;;;;;;;20.83;32.42;93015.00;2054619;70;20578;-77
2022/11/07 10:56:48;;;;;;;3.10;2.70;;;;;;;19.22;33.42;93002.91;2054794;70;20149;-78
2022/11/07 10:59:23;;;;;;;3.08;2.22;;;;;;;20.30;33.80;93011.34;2054718;70;20157;-75
2022/11/07 11:01:52;;;;;;;1.77;1.58;;;;;;;21.79;33.09;93001.75;2054791;70;20225;-76
2022/11/07 11:04:22;;;;;;;2.28;1.52;;;;;;;24.77;29.61;93000.78;2054587;70;20645;-75
2022/11/07 11:07:09;;;;;;;2.00;1.40;;;;;;;23.66;28.95;93001.31;2054783;70;20515;-76
2022/11/07 11:09:36;;;;;;;2.38;1.65;;;;;;;21.85;31.48;92986.09;2055194;70;20296;-76
2022/11/07 11:12:10;;;;;;;4.43;3.33;;;;;;;20.45;32.58;92983.88;2054864;70;20181;-77
2022/11/07 11:14:36;;;;;;;5.22;3.53;;;;;;;19.83;33.36;92986.31;2054567;70;20142;-76
2022/11/07 11:17:02;;;;;;;1.80;1.40;;;;;;;19.23;34.32;92975.09;2054619;69;20149;-77
2022/11/07 11:19:40;;;;;;;1.50;1.20;;;;;;;19.17;34.56;92977.75;2054865;70;20213;-76
2022/11/07 11:22:17;;;;;;;1.98;1.58;;;;;;;18.56;36.74;92967.09;2054707;70;20157;-76
2022/11/07 11:24:43;;;;;;;2.13;1.70;;;;;;;20.80;34.05;92974.13;2054930;70;20142;-76
2022/11/07 11:27:21;;;;;;;2.75;1.70;;;;;;;21.06;33.53;92974.13;2054660;70;20145;-77
2022/11/07 11:29:51;;;;;;;2.15;1.63;;;;;;;20.55;34.23;92967.75;2051558;70;20134;-76
2022/11/07 11:32:41;;;;;;;3.65;1.70;;;;;;;20.40;33.97;92962.28;2054867;70;20252;-75
2022/11/07 11:35:14;;;;;;;3.85;1.85;;;;;;;19.94;33.06;92962.38;2054450;70;20519;-76
2022/11/07 11:37:44;;;;;;;2.53;1.73;;;;;;;20.96;32.74;92968.13;2054703;70;20182;-76
2022/11/07 11:40:17;;;;;;;2.38;1.80;;;;;;;21.80;31.38;92957.34;2054847;70;20146;-76
2022/11/07 11:43:11;;;;;;;3.35;2.40;;;;;;;21.73;31.25;92952.19;2054956;70;20154;-75
2022/11/07 11:45:56;;;;;;;2.33;1.55;;;;;;;20.48;31.68;92948.22;2054732;70;20224;-76
2022/11/07 11:48:46;;;;;;;2.88;1.30;;;;;;;20.80;31.28;92945.53;2052137;70;20241;-76
2022/11/07 11:51:15;;;;;;;1.30;1.17;;;;;;;19.53;32.03;92935.41;2054742;70;20134;-77
2022/11/07 11:53:40;;;;;;;1.40;1.10;;;;;;;19.37;32.98;92923.47;2054724;69;20146;-79
2022/11/07 11:56:06;;;;;;;1.30;1.10;;;;;;;18.73;34.33;92940.63;2054717;70;20710;-77
2022/11/07 11:58:46;;;;;;;2.15;1.58;;;;;;;17.78;36.15;92930.09;2054548;70;20140;-76
2022/11/07 12:01:25;;;;;;;1.88;1.50;;;;;;;18.39;36.12;92929.44;2054870;70;20139;-78